Mount Lawley Perth Metro, Australia
Current Conditions -  °F | °C
As of 4:00 PM on Friday 28 Nov 2014 (Local Time) from YPPH Reporting Station
Broken Clouds Broken Clouds  
Wind Chill: 72°   Ceiling: 3000
Heat Index: 72°   Visibility: 6mi
Dew Point: 59°   Wind: 16mph
Humidity: 64%   Direction: 250°WSW
Pressure: 29.85"   Gusts: NA
Location:  31.92°S, 115.87°E
Report Text: YPPH 280800Z 25014KT 9999 BKN030 22/15 Q1011
Loading
Personal Weather Stations






























Interactive Weather Map New forecast layout! Learn more

10-Day Weather Forecast

Advertisements
Track Severe Weather on mobile